Time;durP1;ratioP1;P1;durP2;ratioP2;P2;SDS_P1;SDS_P2;PMS_P1;PMS_P2;Temp;Humidity;BMP_temperature;BMP_pressure;BME280_temperature;BME280_humidity;BME280_pressure;Samples;Min_cycle;Max_cycle;Signal;HPM_P1;HPM_P2
2022/01/28 00:01:08;;;;;;;31.85;17.30;;;;;;;-0.37;70.62;101001.83;1770554;80;25719;-63
2022/01/28 00:03:32;;;;;;;36.60;19.17;;;;;;;-0.35;70.74;101005.25;1783072;80;25425;-62
2022/01/28 00:06:00;;;;;;;30.88;17.67;;;;;;;-0.31;70.74;101009.50;1786403;80;28589;-63
2022/01/28 00:08:28;;;;;;;29.67;16.87;;;;;;;-0.34;70.35;101017.55;1819145;78;25904;-63
2022/01/28 00:10:55;;;;;;;32.70;16.60;;;;;;;-0.34;70.50;101004.33;1818710;78;25746;-63
2022/01/28 00:13:28;;;;;;;29.27;16.55;;;;;;;-0.32;70.61;101011.30;1816356;78;26160;-62
2022/01/28 00:40:24;;;;;;;33.28;17.77;;;;;;;-0.11;71.01;100972.16;1819144;78;26139;-64
2022/01/28 00:42:51;;;;;;;34.43;19.20;;;;;;;-0.09;70.59;100972.96;1783853;80;25727;-64
2022/01/28 00:45:19;;;;;;;47.58;16.62;;;;;;;-0.13;70.63;100976.16;1754039;81;27470;-64
2022/01/28 00:47:47;;;;;;;32.28;17.52;;;;;;;-0.17;70.70;100976.75;1786619;80;25720;-64
2022/01/28 00:50:16;;;;;;;28.15;16.90;;;;;;;-0.19;70.64;100972.02;1786359;80;25788;-64
2022/01/28 00:52:43;;;;;;;33.25;16.73;;;;;;;-0.16;70.66;100981.59;1777321;79;25513;-65
2022/01/28 00:55:10;;;;;;;27.32;16.05;;;;;;;-0.18;70.59;100968.89;1819442;78;25871;-64
2022/01/28 00:57:37;;;;;;;29.65;16.20;;;;;;;-0.21;70.64;100965.04;1784762;80;27450;-64
2022/01/28 01:00:08;;;;;;;27.85;15.28;;;;;;;-0.22;70.58;100967.28;1818933;78;25788;-64
2022/01/28 01:02:35;;;;;;;25.92;14.80;;;;;;;-0.21;70.58;100958.43;1785991;80;25751;-65
2022/01/28 01:05:02;;;;;;;28.57;15.43;;;;;;;-0.28;70.38;100949.91;1787044;80;26139;-64
2022/01/28 01:07:30;;;;;;;26.62;14.63;;;;;;;-0.32;70.47;100954.91;1768892;80;25710;-64
2022/01/28 01:09:58;;;;;;;27.82;14.83;;;;;;;-0.36;70.52;100952.84;1818121;78;26952;-63
2022/01/28 01:12:27;;;;;;;24.35;14.70;;;;;;;-0.35;70.67;100949.73;1819121;78;25736;-63
2022/01/28 01:14:53;;;;;;;28.12;16.10;;;;;;;-0.38;70.75;100941.47;1803920;78;25726;-63
2022/01/28 01:17:40;;;;;;;29.30;15.05;;;;;;;-0.42;70.66;100945.63;1804345;78;27696;-63
2022/01/28 01:20:19;;;;;;;29.00;16.97;;;;;;;-0.43;70.62;100934.64;1817354;78;25732;-63
2022/01/28 01:22:40;;;;;;;28.55;14.70;;;;;;;-0.40;70.86;100938.50;1816669;78;27456;-62
2022/01/28 01:25:17;;;;;;;28.42;14.80;;;;;;;-0.43;70.71;100942.58;1819364;77;25703;-63
2022/01/28 01:27:38;;;;;;;29.27;16.12;;;;;;;-0.43;70.87;100939.93;1819291;77;25689;-63
2022/01/28 01:30:06;;;;;;;27.70;14.33;;;;;;;-0.40;71.10;100929.25;1786885;80;26159;-63
2022/01/28 01:32:34;;;;;;;30.20;15.60;;;;;;;-0.39;71.15;100930.50;1785771;78;25787;-63
2022/01/28 01:35:01;;;;;;;28.07;15.03;;;;;;;-0.38;71.05;100933.54;1758178;80;27482;-63
2022/01/28 01:37:28;;;;;;;22.65;14.18;;;;;;;-0.39;71.05;100930.97;1761195;81;26517;-63
2022/01/28 01:39:56;;;;;;;30.17;16.07;;;;;;;-0.40;71.16;100928.77;1761207;80;25971;-63
2022/01/28 01:42:36;;;;;;;26.25;14.50;;;;;;;-0.37;71.21;100925.17;1805677;77;25811;-63
2022/01/28 01:52:57;;;;;;;36.93;16.62;;;;;;;-0.32;71.07;100931.11;1815113;78;25489;-64
2022/01/28 01:55:25;;;;;;;25.77;14.80;;;;;;;-0.31;71.12;100930.20;1813737;78;25764;-63
2022/01/28 01:57:52;;;;;;;29.27;15.45;;;;;;;-0.34;71.19;100923.26;1813798;79;25809;-63
2022/01/28 02:00:20;;;;;;;26.57;15.78;;;;;;;-0.31;71.18;100918.30;1814637;77;27521;-64
2022/01/28 02:02:49;;;;;;;30.75;15.98;;;;;;;-0.29;71.13;100923.52;1817366;78;25683;-64
2022/01/28 02:05:17;;;;;;;25.10;14.60;;;;;;;-0.27;71.22;100923.84;1819827;78;25722;-64
2022/01/28 02:07:46;;;;;;;24.27;13.80;;;;;;;-0.27;71.30;100918.55;1819138;78;26106;-63
2022/01/28 02:10:14;;;;;;;26.87;14.20;;;;;;;-0.30;70.83;100918.70;1819904;78;25776;-63
2022/01/28 02:12:52;;;;;;;25.23;14.03;;;;;;;-0.30;70.93;100917.83;1819453;78;27451;-65
2022/01/28 02:15:20;;;;;;;24.45;13.72;;;;;;;-0.30;70.85;100923.11;1819646;78;25690;-64
2022/01/28 02:17:47;;;;;;;26.45;13.53;;;;;;;-0.30;71.20;100922.66;1821196;77;25784;-64
2022/01/28 02:20:37;;;;;;;36.20;15.43;;;;;;;-0.28;71.10;100931.41;1819652;78;25992;-63
2022/01/28 02:22:59;;;;;;;29.80;14.50;;;;;;;-0.25;71.31;100929.09;1814283;78;25710;-64
2022/01/28 02:25:32;;;;;;;26.60;14.45;;;;;;;-0.23;71.42;100921.96;1815633;78;27489;-64
2022/01/28 02:28:03;;;;;;;25.88;14.35;;;;;;;-0.19;71.51;100920.45;1804535;78;25801;-64
2022/01/28 02:30:30;;;;;;;24.20;14.30;;;;;;;-0.12;71.25;100914.89;1823178;78;25685;-63
2022/01/28 02:33:09;;;;;;;25.60;14.07;;;;;;;-0.12;71.05;100917.06;1822379;77;26213;-64
2022/01/28 02:35:27;;;;;;;25.85;14.85;;;;;;;-0.10;71.29;100924.48;1800904;79;25725;-64
2022/01/28 02:37:54;;;;;;;26.68;15.40;;;;;;;-0.08;71.24;100920.44;1805639;78;27460;-64
2022/01/28 02:40:21;;;;;;;22.25;13.18;;;;;;;-0.06;71.16;100932.70;1800722;79;25798;-64
2022/01/28 02:42:58;;;;;;;27.87;14.33;;;;;;;-0.06;70.92;100925.20;1814487;78;25758;-64
2022/01/28 02:45:31;;;;;;;26.42;14.80;;;;;;;-0.12;70.70;100926.32;1812912;79;26222;-64
2022/01/28 02:48:00;;;;;;;23.67;13.58;;;;;;;-0.12;70.88;100919.71;1813237;79;25721;-64
2022/01/28 02:50:27;;;;;;;27.05;14.47;;;;;;;-0.07;71.00;100916.43;1821136;77;28276;-64
2022/01/28 02:53:02;;;;;;;26.15;14.93;;;;;;;-0.02;71.08;100903.86;1825834;77;25705;-64
2022/01/28 02:55:24;;;;;;;27.42;14.33;;;;;;;0.02;71.13;100909.03;1812333;79;25697;-64
2022/01/28 02:58:03;;;;;;;24.92;14.30;;;;;;;0.05;71.01;100907.11;1813940;79;25792;-64
2022/01/28 03:00:19;;;;;;;30.15;14.93;;;;;;;0.06;71.09;100906.63;1814828;78;25477;-65
2022/01/28 03:02:46;;;;;;;26.55;15.13;;;;;;;0.07;71.21;100901.75;1816618;78;27424;-64
2022/01/28 03:05:31;;;;;;;28.15;15.00;;;;;;;0.07;71.09;100907.91;1813601;78;27296;-64
2022/01/28 03:07:53;;;;;;;25.25;14.85;;;;;;;0.06;71.08;100909.28;1807595;77;25709;-64
2022/01/28 03:15:34;;;;;;;25.65;14.18;;;;;;;0.02;71.22;100895.80;1813497;78;27491;-63
2022/01/28 03:18:12;;;;;;;26.65;14.80;;;;;;;0.03;71.20;100897.53;1816072;78;25784;-63
2022/01/28 03:20:40;;;;;;;27.10;14.38;;;;;;;0.03;71.21;100894.41;1818667;78;26351;-63
2022/01/28 03:23:05;;;;;;;29.02;15.30;;;;;;;0.04;71.36;100887.34;1816140;77;25697;-63
2022/01/28 03:25:35;;;;;;;25.88;13.72;;;;;;;0.05;71.20;100894.33;1790545;77;26005;-63
2022/01/28 03:28:01;;;;;;;27.30;14.50;;;;;;;0.02;71.03;100887.87;1795412;79;27504;-63
2022/01/28 03:30:28;;;;;;;25.32;14.90;;;;;;;0.03;71.21;100896.20;1814024;78;25509;-64
2022/01/28 03:32:54;;;;;;;22.42;13.08;;;;;;;0.01;71.23;100897.57;1800178;78;25723;-64
2022/01/28 03:35:21;;;;;;;23.67;13.88;;;;;;;-0.01;71.20;100899.45;1784141;79;25623;-63
2022/01/28 03:37:53;;;;;;;26.12;15.05;;;;;;;-0.03;71.13;100899.48;1794438;78;25876;-63
2022/01/28 03:40:20;;;;;;;27.00;15.08;;;;;;;-0.05;71.05;100898.72;1813210;79;28192;-64
2022/01/28 03:42:46;;;;;;;23.83;14.05;;;;;;;-0.07;70.92;100886.45;1808802;77;25947;-63
2022/01/28 03:45:12;;;;;;;21.90;13.20;;;;;;;-0.07;71.08;100887.78;1786983;79;25702;-63
2022/01/28 03:47:39;;;;;;;29.10;14.60;;;;;;;-0.07;71.15;100899.23;1794127;78;26260;-63
2022/01/28 03:50:07;;;;;;;25.65;14.68;;;;;;;-0.08;71.33;100901.48;1814273;78;25421;-64
2022/01/28 03:52:34;;;;;;;25.25;14.18;;;;;;;-0.08;71.39;100897.96;1813914;78;27456;-63
2022/01/28 03:55:02;;;;;;;29.50;15.00;;;;;;;-0.10;71.21;100902.48;1813685;79;25785;-63
2022/01/28 03:57:31;;;;;;;27.25;14.85;;;;;;;-0.12;71.24;100898.55;1814527;78;25796;-63
2022/01/28 03:59:58;;;;;;;28.65;15.05;;;;;;;-0.11;71.39;100901.60;1805334;77;25984;-63
2022/01/28 04:02:29;;;;;;;30.25;16.12;;;;;;;-0.11;71.46;100898.95;1803116;79;25909;-63
2022/01/28 04:12:55;;;;;;;;;;;;;;;0.03;71.65;100903.66;1802181;79;25536;-63
2022/01/28 04:15:36;;;;;;;30.37;16.00;;;;;;;0.02;71.59;100900.62;1807949;77;25750;-63
2022/01/28 04:17:51;;;;;;;32.30;17.25;;;;;;;0.03;71.52;100890.91;1812389;78;27601;-63
2022/01/28 04:20:18;;;;;;;33.85;17.67;;;;;;;0.05;71.42;100890.36;1819848;78;25803;-62
2022/01/28 04:22:45;;;;;;;26.75;15.70;;;;;;;0.08;71.51;100890.24;1807886;78;25633;-63
2022/01/28 04:25:27;;;;;;;29.52;15.35;;;;;;;0.08;71.51;100897.73;1795693;78;25678;-63
2022/01/28 04:27:54;;;;;;;25.40;14.40;;;;;;;0.09;71.48;100899.90;1789910;78;25749;-62
2022/01/28 04:30:21;;;;;;;27.13;14.15;;;;;;;0.06;71.42;100896.94;1793238;79;27586;-63
2022/01/28 04:32:50;;;;;;;31.15;16.02;;;;;;;0.07;71.65;100893.36;1801220;79;27272;-63
2022/01/28 04:35:17;;;;;;;28.60;15.63;;;;;;;0.06;71.48;100904.87;1812105;79;25455;-63
2022/01/28 04:37:58;;;;;;;29.72;15.40;;;;;;;0.06;71.51;100907.52;1812435;79;25730;-63
2022/01/28 04:40:28;;;;;;;26.77;14.87;;;;;;;0.10;71.54;100912.20;1797785;78;25815;-62
2022/01/28 04:43:04;;;;;;;27.25;14.10;;;;;;;0.10;71.47;100912.20;1815313;78;28388;-63
2022/01/28 04:45:40;;;;;;;28.35;16.65;;;;;;;0.07;71.25;100913.20;1812981;77;25745;-63
2022/01/28 04:48:17;;;;;;;28.00;14.50;;;;;;;0.10;71.31;100912.20;1797609;79;25682;-65
2022/01/28 04:50:48;;;;;;;27.82;14.45;;;;;;;0.15;71.26;100915.50;1786205;79;25519;-65
2022/01/28 04:53:24;;;;;;;27.73;15.23;;;;;;;0.16;71.30;100909.29;1794093;78;25839;-64
2022/01/28 05:01:17;;;;;;;29.30;15.93;;;;;;;0.15;71.42;100904.48;1791633;80;25703;-64
2022/01/28 05:03:57;;;;;;;28.17;14.47;;;;;;;0.13;71.19;100904.15;1820983;78;25764;-64
2022/01/28 05:09:26;;;;;;;31.85;17.32;;;;;;;0.19;71.44;100907.84;1762102;81;27460;-64
2022/01/28 05:11:58;;;;;;;28.98;15.25;;;;;;;0.23;71.45;100904.13;1757479;80;25931;-63
2022/01/28 05:14:36;;;;;;;26.52;16.05;;;;;;;0.19;71.19;100902.55;1766791;80;25822;-63
2022/01/28 05:27:35;;;;;;;30.43;16.05;;;;;;;0.26;71.71;100904.00;1809004;77;25725;-62
2022/01/28 05:29:55;;;;;;;25.72;14.30;;;;;;;0.26;71.65;100911.94;1806529;78;25932;-63
2022/01/28 05:32:22;;;;;;;31.37;16.15;;;;;;;0.26;71.61;100915.91;1808259;77;25798;-63
2022/01/28 05:34:49;;;;;;;24.82;13.98;;;;;;;0.27;71.75;100911.02;1797576;79;27433;-63
2022/01/28 05:37:16;;;;;;;27.00;14.53;;;;;;;0.34;71.81;100912.06;1791819;79;25797;-63
2022/01/28 05:39:43;;;;;;;26.62;15.10;;;;;;;0.38;71.92;100913.19;1786286;79;25790;-62
2022/01/28 05:42:10;;;;;;;44.55;21.23;;;;;;;0.45;72.06;100919.08;1789337;79;25823;-63
2022/01/28 05:44:37;;;;;;;32.30;17.50;;;;;;;0.48;71.47;100911.45;1799257;79;25719;-63
2022/01/28 05:47:05;;;;;;;30.45;17.30;;;;;;;0.53;71.34;100910.33;1799105;79;27471;-63
2022/01/28 05:49:33;;;;;;;40.98;20.45;;;;;;;0.55;71.31;100908.92;1799233;79;25853;-63
2022/01/28 05:52:00;;;;;;;38.85;20.30;;;;;;;0.60;71.41;100914.42;1794440;79;26147;-63
2022/01/28 05:54:27;;;;;;;31.05;18.02;;;;;;;0.62;71.34;100907.75;1785668;79;25790;-63
2022/01/28 05:56:55;;;;;;;32.75;18.30;;;;;;;0.62;71.24;100913.89;1794104;79;25753;-63
2022/01/28 05:59:22;;;;;;;31.23;17.32;;;;;;;0.63;71.09;100908.13;1793425;79;27470;-62
2022/01/28 06:01:49;;;;;;;32.33;15.88;;;;;;;0.65;71.12;100910.72;1793745;79;25786;-58
2022/01/28 06:04:16;;;;;;;33.80;17.57;;;;;;;0.66;71.20;100918.58;1795696;79;25765;-59
2022/01/28 06:06:44;;;;;;;40.17;18.70;;;;;;;0.65;71.22;100914.21;1798854;79;25795;-59
2022/01/28 06:09:11;;;;;;;46.13;21.30;;;;;;;0.66;71.17;100913.29;1794453;79;25682;-59
2022/01/28 06:11:39;;;;;;;44.40;20.23;;;;;;;0.66;71.04;100921.71;1799058;79;28229;-59
2022/01/28 06:14:06;;;;;;;34.73;16.40;;;;;;;0.68;71.10;100917.18;1794107;79;26353;-58
2022/01/28 06:16:33;;;;;;;36.75;20.32;;;;;;;0.70;71.10;100927.25;1793759;79;25770;-59
2022/01/28 06:19:01;;;;;;;46.37;22.60;;;;;;;0.74;71.11;100936.31;1793773;79;25851;-58
2022/01/28 06:21:28;;;;;;;33.25;17.73;;;;;;;0.76;71.17;100939.75;1795662;79;25682;-58
2022/01/28 06:23:55;;;;;;;31.55;16.02;;;;;;;0.80;71.40;100939.15;1786530;79;27433;-58
2022/01/28 06:26:22;;;;;;;29.35;16.07;;;;;;;0.83;71.20;100932.84;1813599;79;26424;-59
2022/01/28 06:28:49;;;;;;;33.33;16.35;;;;;;;0.85;70.91;100927.87;1816289;78;25808;-58
2022/01/28 06:31:17;;;;;;;31.75;15.78;;;;;;;0.88;70.90;100925.09;1796565;77;26767;-58
2022/01/28 06:33:44;;;;;;;33.58;15.25;;;;;;;0.92;70.55;100915.21;1814800;78;25905;-58
2022/01/28 06:36:11;;;;;;;24.85;14.55;;;;;;;1.00;70.51;100920.16;1784873;80;27533;-58
2022/01/28 06:38:38;;;;;;;32.23;17.35;;;;;;;1.06;70.64;100909.27;1782811;80;25780;-58
2022/01/28 06:41:05;;;;;;;37.55;18.35;;;;;;;1.11;70.52;100898.02;1779728;80;25743;-58
2022/01/28 06:43:32;;;;;;;36.17;18.07;;;;;;;1.18;70.56;100891.48;1817207;78;25835;-58
2022/01/28 06:45:59;;;;;;;40.67;18.27;;;;;;;1.23;70.47;100893.44;1783838;80;25463;-58
2022/01/28 06:48:26;;;;;;;87.53;31.73;;;;;;;1.29;70.69;100877.72;1771027;80;28157;-58
2022/01/28 06:50:53;;;;;;;130.60;43.83;;;;;;;1.36;70.89;100872.98;1813276;78;25791;-59
2022/01/28 06:53:20;;;;;;;228.58;74.25;;;;;;;1.41;70.79;100870.95;1807729;77;25798;-58
2022/01/28 06:55:47;;;;;;;227.72;78.15;;;;;;;1.47;70.76;100865.82;1786324;78;26471;-58
2022/01/28 06:58:13;;;;;;;119.53;45.65;;;;;;;1.50;70.35;100859.05;1797001;78;27314;-58
2022/01/28 07:00:41;;;;;;;75.40;30.70;;;;;;;1.50;70.10;100851.10;1752313;79;27528;-59
2022/01/28 07:03:10;;;;;;;48.80;24.82;;;;;;;1.49;69.89;100852.03;1773358;80;25939;-58
2022/01/28 07:05:39;;;;;;;46.42;23.20;;;;;;;1.51;70.01;100852.34;1780705;80;25710;-59
2022/01/28 07:08:07;;;;;;;43.87;21.42;;;;;;;1.53;69.94;100841.65;1772787;80;25682;-59
2022/01/28 07:10:35;;;;;;;40.25;20.92;;;;;;;1.54;69.71;100845.57;1781672;79;25797;-60
2022/01/28 07:13:03;;;;;;;54.15;24.43;;;;;;;1.57;69.76;100843.22;1786346;79;27481;-59
2022/01/28 07:15:31;;;;;;;69.75;33.83;;;;;;;1.57;69.54;100833.95;1780185;79;25689;-59
2022/01/28 07:18:02;;;;;;;83.05;37.23;;;;;;;1.60;69.59;100844.86;1783728;79;26593;-59
2022/01/28 07:20:36;;;;;;;80.53;33.98;;;;;;;1.61;69.63;100850.56;1781606;79;25781;-59
2022/01/28 07:23:03;;;;;;;87.35;35.05;;;;;;;1.59;69.65;100844.02;1780624;80;25791;-59
2022/01/28 07:25:30;;;;;;;50.65;27.40;;;;;;;1.55;69.55;100838.02;1786358;80;28142;-59
2022/01/28 07:27:57;;;;;;;53.28;25.52;;;;;;;1.52;69.42;100843.45;1780883;80;25817;-59
2022/01/28 07:30:24;;;;;;;58.38;28.55;;;;;;;1.52;69.77;100837.30;1783658;80;25833;-59
2022/01/28 07:32:52;;;;;;;52.85;27.25;;;;;;;1.51;69.76;100833.78;1781193;80;26807;-59
2022/01/28 07:35:19;;;;;;;53.00;27.55;;;;;;;1.53;69.92;100829.27;1779984;80;25819;-59
2022/01/28 07:37:46;;;;;;;54.25;26.52;;;;;;;1.58;70.14;100822.41;1780724;80;27455;-59
2022/01/28 07:40:13;;;;;;;61.37;26.48;;;;;;;1.62;69.99;100827.09;1778459;80;25770;-60
2022/01/28 07:42:41;;;;;;;54.10;27.40;;;;;;;1.65;69.95;100830.44;1782391;80;25727;-59
2022/01/28 07:45:11;;;;;;;53.80;28.15;;;;;;;1.66;69.88;100841.44;1766233;80;25793;-59
2022/01/28 07:47:38;;;;;;;54.93;28.57;;;;;;;1.70;69.90;100855.41;1771653;80;26031;-59
2022/01/28 07:50:08;;;;;;;51.15;27.62;;;;;;;1.78;69.92;100849.72;1790629;80;27447;-60
2022/01/28 07:52:36;;;;;;;53.68;26.93;;;;;;;1.87;69.77;100863.84;1786261;80;25700;-59
2022/01/28 07:55:06;;;;;;;53.58;29.20;;;;;;;1.85;69.21;100869.20;1774644;80;25533;-59
2022/01/28 07:57:35;;;;;;;45.50;24.75;;;;;;;1.91;69.52;100864.55;1776901;80;26414;-59
2022/01/28 08:00:03;;;;;;;50.35;26.02;;;;;;;1.95;69.34;100858.13;1759190;80;25663;-59
2022/01/28 08:02:31;;;;;;;60.63;26.60;;;;;;;2.02;69.39;100853.77;1773000;80;28297;-60
2022/01/28 08:04:58;;;;;;;48.45;24.85;;;;;;;2.13;69.53;100843.91;1776278;79;25800;-60
2022/01/28 08:07:26;;;;;;;48.33;23.90;;;;;;;2.26;69.43;100845.94;1775004;80;25708;-59
2022/01/28 08:09:53;;;;;;;46.18;23.92;;;;;;;2.34;69.18;100841.92;1775101;80;26518;-59
2022/01/28 08:12:21;;;;;;;53.63;26.37;;;;;;;2.39;68.25;100847.47;1776539;80;25726;-60
2022/01/28 08:14:48;;;;;;;56.35;27.95;;;;;;;2.39;68.18;100837.69;1788872;80;27478;-60
2022/01/28 08:17:15;;;;;;;47.27;23.42;;;;;;;2.39;67.95;100836.37;1790475;80;25687;-59
2022/01/28 08:19:41;;;;;;;46.08;23.60;;;;;;;2.39;67.84;100836.37;1790357;80;25794;-60
2022/01/28 08:22:08;;;;;;;39.78;22.45;;;;;;;2.40;68.16;100834.11;1768974;80;25885;-60
2022/01/28 08:24:35;;;;;;;43.70;22.65;;;;;;;2.45;68.15;100832.08;1777708;80;25804;-60
2022/01/28 08:27:03;;;;;;;39.50;23.27;;;;;;;2.48;68.17;100833.70;1790923;80;27484;-60
2022/01/28 08:29:30;;;;;;;47.13;25.68;;;;;;;2.53;68.28;100842.75;1784204;80;25743;-59
2022/01/28 08:31:57;;;;;;;46.08;24.30;;;;;;;2.57;68.25;100844.28;1778660;80;25845;-60
2022/01/28 08:34:24;;;;;;;49.23;26.05;;;;;;;2.60;68.13;100833.02;1783696;80;26429;-59
2022/01/28 08:36:50;;;;;;;57.03;28.25;;;;;;;2.63;68.01;100827.55;1785905;80;25469;-59
2022/01/28 08:39:18;;;;;;;57.78;29.27;;;;;;;2.59;67.92;100834.44;1790234;79;27485;-60
2022/01/28 08:41:45;;;;;;;53.60;29.75;;;;;;;2.57;68.02;100844.28;1780111;80;25835;-59
2022/01/28 08:44:11;;;;;;;49.53;26.55;;;;;;;2.56;67.94;100845.22;1782339;80;25698;-59
2022/01/28 08:46:38;;;;;;;54.30;28.35;;;;;;;2.51;67.91;100852.11;1784608;80;25812;-60
2022/01/28 08:49:05;;;;;;;55.05;29.05;;;;;;;2.47;67.87;100846.59;1783388;80;25731;-60
2022/01/28 08:51:32;;;;;;;59.05;30.12;;;;;;;2.43;67.89;100844.57;1781317;80;27468;-59
2022/01/28 08:53:59;;;;;;;63.30;30.57;;;;;;;2.43;67.90;100847.23;1785861;80;25838;-60
2022/01/28 08:56:26;;;;;;;65.17;31.52;;;;;;;2.44;67.82;100856.03;1778537;80;25770;-59
2022/01/28 08:58:52;;;;;;;63.90;34.38;;;;;;;2.63;68.21;100853.27;1765097;80;25777;-59
2022/01/28 09:01:20;;;;;;;68.85;36.33;;;;;;;2.92;68.55;100854.78;1779195;80;25806;-59
2022/01/28 09:03:49;;;;;;;73.95;38.65;;;;;;;3.31;68.75;100855.31;1780770;80;27455;-60
2022/01/28 09:06:16;;;;;;;68.22;34.63;;;;;;;3.87;68.78;100846.31;1772731;80;25833;-60
2022/01/28 09:08:44;;;;;;;62.60;33.80;;;;;;;4.76;67.93;100842.65;1782046;80;25818;-60
2022/01/28 09:13:52;;;;;;;69.75;35.00;;;;;;;6.73;63.03;100838.44;1783153;80;25711;-59
2022/01/28 09:16:21;;;;;;;62.05;31.97;;;;;;;7.57;61.16;100843.58;1746441;80;27522;-60
2022/01/28 09:18:49;;;;;;;59.93;30.80;;;;;;;8.33;60.52;100837.33;1787160;80;25790;-59
2022/01/28 09:21:16;;;;;;;50.80;29.23;;;;;;;9.07;59.68;100830.62;1780754;80;25794;-59
2022/01/28 09:23:46;;;;;;;53.63;27.70;;;;;;;9.83;58.79;100831.95;1782482;80;26572;-60
2022/01/28 09:26:12;;;;;;;46.15;25.15;;;;;;;10.57;57.22;100828.81;1785101;80;27355;-60
2022/01/28 09:28:42;;;;;;;43.38;23.98;;;;;;;11.04;54.75;100827.41;1780259;80;27432;-60
2022/01/28 09:31:09;;;;;;;42.15;26.33;;;;;;;11.48;52.38;100831.08;1778562;80;25800;-59
2022/01/28 09:33:37;;;;;;;41.68;25.85;;;;;;;11.75;52.97;100835.27;1771661;80;25486;-60
2022/01/28 09:36:07;;;;;;;47.55;25.90;;;;;;;11.98;51.25;100823.36;1764393;80;25794;-59
2022/01/28 09:38:34;;;;;;;43.35;24.80;;;;;;;12.44;50.76;100830.30;1753519;80;26352;-59
2022/01/28 09:41:04;;;;;;;38.63;23.12;;;;;;;12.96;50.07;100819.84;1767053;80;27472;-60
2022/01/28 09:43:33;;;;;;;39.48;22.35;;;;;;;13.37;48.72;100815.39;1770357;80;25772;-60
2022/01/28 09:46:01;;;;;;;39.60;22.73;;;;;;;13.81;46.42;100804.31;1763802;80;25755;-60
2022/01/28 09:48:29;;;;;;;50.85;23.15;;;;;;;14.30;46.06;100798.41;1762398;80;25770;-59
2022/01/28 09:51:00;;;;;;;40.75;23.85;;;;;;;14.86;46.04;100800.22;1766596;80;25792;-60
2022/01/28 09:53:27;;;;;;;41.68;21.87;;;;;;;15.33;44.19;100798.31;1766831;79;28523;-60
2022/01/28 09:55:54;;;;;;;41.58;20.02;;;;;;;14.78;44.64;100801.54;1768363;80;26542;-60
2022/01/28 09:58:21;;;;;;;33.67;17.62;;;;;;;14.35;42.31;100790.15;1765300;80;25713;-59
2022/01/28 10:00:48;;;;;;;35.83;19.32;;;;;;;14.06;38.74;100789.13;1761626;80;25811;-59
2022/01/28 10:03:18;;;;;;;30.45;16.17;;;;;;;13.52;42.49;100786.01;1786901;79;26097;-59
2022/01/28 10:05:50;;;;;;;22.02;11.80;;;;;;;13.33;42.50;100785.61;1781763;79;27541;-59
2022/01/28 10:08:23;;;;;;;22.65;11.75;;;;;;;12.91;43.93;100795.64;1785315;79;27235;-59
2022/01/28 10:11:07;;;;;;;19.85;9.68;;;;;;;12.26;41.77;100796.48;1779316;79;25865;-60
2022/01/28 10:13:48;;;;;;;18.98;11.68;;;;;;;11.64;39.90;100794.16;1795831;77;25829;-59
2022/01/28 10:16:30;;;;;;;20.85;11.12;;;;;;;10.99;41.65;100786.58;1763993;80;25945;-59
2022/01/28 10:19:00;;;;;;;20.48;9.58;;;;;;;10.49;40.58;100781.05;1778253;80;27463;-59
2022/01/28 10:21:43;;;;;;;18.17;11.35;;;;;;;9.89;41.53;100769.26;1801108;79;25628;-59
2022/01/28 10:24:17;;;;;;;20.60;9.95;;;;;;;9.40;42.45;100772.45;1776861;78;25788;-58
2022/01/28 10:26:54;;;;;;;20.30;11.48;;;;;;;9.01;43.49;100772.93;1773596;80;25964;-59
2022/01/28 10:29:30;;;;;;;31.07;11.60;;;;;;;8.71;44.60;100774.95;1786460;78;25792;-59
2022/01/28 10:32:04;;;;;;;22.30;11.03;;;;;;;8.43;44.46;100778.47;1794560;78;28249;-60
2022/01/28 10:34:49;;;;;;;21.17;11.35;;;;;;;8.20;45.74;100772.27;1806675;78;25701;-58
2022/01/28 10:37:24;;;;;;;21.30;10.50;;;;;;;8.05;45.78;100768.47;1811734;78;25812;-59
2022/01/28 10:40:01;;;;;;;24.57;13.98;;;;;;;7.88;45.80;100767.12;1766969;80;25991;-58
2022/01/28 10:42:50;;;;;;;21.10;11.33;;;;;;;7.71;46.54;100764.39;1773198;80;25738;-59
2022/01/28 10:45:17;;;;;;;22.98;11.00;;;;;;;7.61;46.37;100770.08;1816510;78;28180;-59
2022/01/28 10:47:57;;;;;;;21.40;11.70;;;;;;;7.46;47.37;100762.25;1784419;78;25764;-59
2022/01/28 10:50:37;;;;;;;25.20;12.23;;;;;;;7.31;48.21;100768.27;1786151;79;25743;-59
2022/01/28 10:53:14;;;;;;;18.20;10.28;;;;;;;7.31;47.79;100760.25;1790348;79;26577;-59
2022/01/28 10:55:54;;;;;;;21.80;11.85;;;;;;;7.36;47.29;100755.89;1792785;79;25807;-59
2022/01/28 10:58:29;;;;;;;23.02;11.63;;;;;;;7.35;47.57;100766.22;1796625;79;27519;-59
2022/01/28 11:00:58;;;;;;;28.50;12.10;;;;;;;7.38;48.27;100770.02;1796434;79;25511;-59
2022/01/28 11:03:28;;;;;;;21.80;11.00;;;;;;;7.41;47.34;100760.39;1796087;78;26570;-59
2022/01/28 11:05:59;;;;;;;23.45;10.65;;;;;;;7.41;47.80;100765.75;1800105;79;25761;-59
2022/01/28 11:08:34;;;;;;;53.13;32.05;;;;;;;7.47;48.12;100768.45;1792310;79;25879;-58
2022/01/28 11:11:01;;;;;;;21.15;11.38;;;;;;;7.43;47.79;100765.16;1788653;79;28178;-59
2022/01/28 11:13:29;;;;;;;21.57;9.90;;;;;;;7.43;48.05;100761.64;1792143;79;25693;-59
2022/01/28 11:15:57;;;;;;;19.77;10.03;;;;;;;7.47;47.31;100761.28;1798567;79;25689;-58
2022/01/28 11:18:27;;;;;;;21.55;10.60;;;;;;;7.48;46.91;100763.47;1787784;79;44854;-58
2022/01/28 11:21:10;;;;;;;24.05;11.68;;;;;;;7.46;47.52;100758.23;1797875;79;25856;-58
2022/01/28 11:23:49;;;;;;;26.12;12.68;;;;;;;7.57;47.73;100760.59;1798971;79;29629;-59
2022/01/28 11:27:06;;;;;;;15.68;8.85;;;;;;;7.50;47.19;100753.00;1784566;79;25761;-59
2022/01/28 11:29:33;;;;;;;15.03;8.35;;;;;;;7.46;46.12;100756.03;1800218;79;25734;-59
2022/01/28 11:32:14;;;;;;;15.83;9.28;;;;;;;7.27;45.85;100757.42;1787011;79;25604;-59
2022/01/28 11:35:05;;;;;;;16.52;7.90;;;;;;;7.23;46.72;100756.42;1778824;79;25847;-59
2022/01/28 11:37:37;;;;;;;13.28;7.90;;;;;;;7.27;46.84;100758.75;1782224;80;27506;-59
2022/01/28 11:40:15;;;;;;;15.85;7.87;;;;;;;7.29;45.61;100760.00;1780656;80;25798;-59
2022/01/28 11:42:44;;;;;;;20.80;9.23;;;;;;;7.44;46.18;100743.27;1783957;80;25757;-59
2022/01/28 11:45:13;;;;;;;12.45;8.75;;;;;;;7.91;45.33;100743.25;1786701;80;25787;-59
2022/01/28 11:47:55;;;;;;;12.80;8.08;;;;;;;8.45;43.97;100734.50;1780776;79;25497;-59
2022/01/28 11:50:25;;;;;;;13.38;6.53;;;;;;;9.15;43.77;100723.98;1780698;80;28195;-59
2022/01/28 11:52:58;;;;;;;12.53;8.68;;;;;;;9.58;40.24;100723.05;1790655;80;25719;-59
2022/01/28 11:55:31;;;;;;;15.15;7.25;;;;;;;9.78;41.20;100721.33;1769900;80;25793;-59
2022/01/28 11:58:09;;;;;;;13.72;7.70;;;;;;;9.69;39.89;100721.64;1757173;80;25784;-59
2022/01/28 12:00:44;;;;;;;18.25;7.65;;;;;;;9.44;39.47;100714.81;1789365;80;26033;-60
2022/01/28 12:03:21;;;;;;;13.50;7.20;;;;;;;9.19;40.00;100721.39;1790560;80;27447;-60
2022/01/28 12:05:54;;;;;;;9.58;6.03;;;;;;;9.01;40.55;100718.43;1777005;80;26142;-60
2022/01/28 12:08:21;;;;;;;11.75;7.25;;;;;;;8.79;40.14;100722.88;1784593;80;25810;-59
2022/01/28 12:10:50;;;;;;;17.23;7.35;;;;;;;8.64;41.28;100718.77;1780604;80;26601;-59
2022/01/28 12:13:22;;;;;;;12.15;7.28;;;;;;;8.57;42.14;100725.98;1769982;80;25674;-59
2022/01/28 12:16:09;;;;;;;19.75;11.28;;;;;;;8.56;42.36;100716.23;1765073;80;28078;-59
2022/01/28 12:18:53;;;;;;;12.30;7.12;;;;;;;8.43;41.52;100719.48;1772583;80;25719;-59
2022/01/28 12:21:26;;;;;;;14.87;7.03;;;;;;;8.21;42.25;100716.34;1763771;80;25840;-59
2022/01/28 12:24:15;;;;;;;17.40;8.25;;;;;;;8.11;43.33;100718.41;1778471;80;26609;-60
2022/01/28 12:27:07;;;;;;;13.40;7.15;;;;;;;8.08;43.71;100721.34;1780428;80;25834;-59
2022/01/28 12:29:47;;;;;;;13.20;7.70;;;;;;;8.00;42.96;100722.44;1784867;80;27478;-60
2022/01/28 12:32:22;;;;;;;16.62;8.85;;;;;;;7.77;43.43;100729.09;1781507;79;25599;-59
2022/01/28 12:34:50;;;;;;;11.63;7.72;;;;;;;7.54;43.76;100737.56;1767357;80;25505;-59
2022/01/28 12:37:21;;;;;;;9.28;5.72;;;;;;;7.27;45.45;100748.05;1759727;80;25729;-59